Time,TemperatureF,DewpointF,PressureIn,WindDirection,WindDirectionDegrees,WindSpeedMPH,WindSpeedGustMPH,Humidity,HourlyPrecipIn,Conditions,Clouds,dailyrainin,SolarRadiationWatts/m^2,SoftwareType,DateUTC
2013-01-17 00:02:00,33.0,30.0,30.61,NNE,32,1.0,3.0,90,-99.99,,,0.00,0.000000,,2013-01-17 08:02:00,
2013-01-17 00:11:00,33.0,30.0,30.61,NNE,32,1.0,3.0,90,-99.99,,,0.00,0.000000,,2013-01-17 08:11:00,
2013-01-17 00:43:00,33.0,30.0,30.61,ENE,62,1.0,5.0,89,-99.99,,,0.00,0.000000,,2013-01-17 08:43:00,
2013-01-17 00:53:00,33.0,30.0,30.61,ENE,62,1.0,5.0,89,-99.99,,,0.00,0.000000,,2013-01-17 08:53:00,
2013-01-17 01:02:00,33.0,30.0,30.61,ENE,62,1.0,5.0,89,-99.99,,,0.00,0.000000,,2013-01-17 09:02:00,
2013-01-17 01:12:00,33.0,30.0,30.61,ENE,62,1.0,5.0,89,-99.99,,,0.00,0.000000,,2013-01-17 09:12:00,
2013-01-17 01:42:00,33.0,29.0,30.61,NNE,13,1.0,4.0,86,-99.99,,,0.00,0.000000,,2013-01-17 09:42:00,
2013-01-17 01:52:00,33.0,29.0,30.61,NNE,13,1.0,4.0,86,-99.99,,,0.00,0.000000,,2013-01-17 09:52:00,
2013-01-17 02:02:00,33.0,29.0,30.61,NNE,13,1.0,4.0,86,-99.99,,,0.00,0.000000,,2013-01-17 10:02:00,
2013-01-17 02:11:00,33.0,29.0,30.61,NNE,13,1.0,4.0,86,-99.99,,,0.00,0.000000,,2013-01-17 10:11:00,
2013-01-17 02:42:00,32.0,29.0,30.61,NNE,23,1.0,5.0,87,-99.99,,,0.00,0.000000,,2013-01-17 10:42:00,
2013-01-17 02:53:00,32.0,29.0,30.61,NNE,23,1.0,5.0,87,-99.99,,,0.00,0.000000,,2013-01-17 10:53:00,
2013-01-17 03:02:00,32.0,29.0,30.61,NNE,23,1.0,5.0,87,-99.99,,,0.00,0.000000,,2013-01-17 11:02:00,
2013-01-17 03:11:00,32.0,29.0,30.61,NNE,23,1.0,5.0,87,-99.99,,,0.00,0.000000,,2013-01-17 11:11:00,
2013-01-17 03:42:00,32.0,28.0,30.62,North,7,1.0,3.0,86,-99.99,,,0.00,0.000000,,2013-01-17 11:42:00,
2013-01-17 03:53:00,32.0,28.0,30.62,North,7,1.0,3.0,86,-99.99,,,0.00,0.000000,,2013-01-17 11:53:00,
2013-01-17 04:02:00,32.0,28.0,30.62,North,7,1.0,3.0,86,-99.99,,,0.00,0.000000,,2013-01-17 12:02:00,
2013-01-17 04:12:00,32.0,28.0,30.62,North,7,1.0,3.0,86,-99.99,,,0.00,0.000000,,2013-01-17 12:12:00,
2013-01-17 04:32:00,32.0,28.0,30.61,North,3,1.0,4.0,83,-99.99,,,0.00,0.000000,,2013-01-17 12:32:00,
2013-01-17 04:42:00,32.0,28.0,30.61,North,3,1.0,4.0,83,-99.99,,,0.00,0.000000,,2013-01-17 12:42:00,
2013-01-17 04:53:00,32.0,28.0,30.61,North,3,1.0,4.0,83,-99.99,,,0.00,0.000000,,2013-01-17 12:53:00,
2013-01-17 05:03:00,32.0,28.0,30.61,North,3,1.0,4.0,83,-99.99,,,0.00,0.000000,,2013-01-17 13:03:00,
2013-01-17 05:12:00,32.0,28.0,30.61,North,3,1.0,4.0,83,-99.99,,,0.00,0.000000,,2013-01-17 13:12:00,
2013-01-17 05:33:00,32.0,28.0,30.60,ENE,62,1.0,3.0,84,-99.99,,,0.00,0.000000,,2013-01-17 13:33:00,
2013-01-17 05:42:00,32.0,28.0,30.60,ENE,62,1.0,3.0,84,-99.99,,,0.00,0.000000,,2013-01-17 13:42:00,
2013-01-17 05:53:00,32.0,28.0,30.60,ENE,62,1.0,3.0,84,-99.99,,,0.00,0.000000,,2013-01-17 13:53:00,
2013-01-17 06:03:00,32.0,28.0,30.60,ENE,62,1.0,3.0,84,-99.99,,,0.00,0.000000,,2013-01-17 14:03:00,
2013-01-17 06:12:00,32.0,28.0,30.60,ENE,62,1.0,3.0,84,-99.99,,,0.00,0.000000,,2013-01-17 14:12:00,
2013-01-17 06:42:00,32.0,28.0,30.59,SE,130,1.0,5.0,83,-99.99,,,0.00,0.000000,,2013-01-17 14:42:00,
2013-01-17 06:53:00,32.0,28.0,30.59,SE,130,1.0,5.0,83,-99.99,,,0.00,0.000000,,2013-01-17 14:53:00,
2013-01-17 07:03:00,32.0,28.0,30.59,SE,130,1.0,5.0,83,-99.99,,,0.00,0.000000,,2013-01-17 15:03:00,
2013-01-17 07:12:00,32.0,28.0,30.59,SE,130,1.0,5.0,83,-99.99,,,0.00,0.000000,,2013-01-17 15:12:00,
2013-01-17 07:33:00,32.0,27.0,30.60,ENE,65,3.0,9.0,80,-99.99,,,0.00,0.000000,,2013-01-17 15:33:00,
2013-01-17 07:43:00,32.0,27.0,30.60,ENE,65,3.0,9.0,80,-99.99,,,0.00,0.000000,,2013-01-17 15:43:00,
2013-01-17 07:53:00,32.0,27.0,30.60,ENE,65,3.0,9.0,80,-99.99,,,0.00,0.000000,,2013-01-17 15:53:00,
2013-01-17 08:02:00,32.0,27.0,30.60,ENE,65,3.0,9.0,80,-99.99,,,0.00,0.000000,,2013-01-17 16:02:00,
2013-01-17 08:12:00,32.0,27.0,30.60,ENE,65,3.0,9.0,80,-99.99,,,0.00,0.000000,,2013-01-17 16:12:00,
2013-01-17 08:43:00,32.0,27.0,30.61,East,81,3.0,15.0,80,-99.99,,,0.00,9.180000,,2013-01-17 16:43:00,
2013-01-17 08:53:00,32.0,27.0,30.61,East,81,3.0,15.0,80,-99.99,,,0.00,9.180000,,2013-01-17 16:53:00,
2013-01-17 09:02:00,32.0,27.0,30.61,East,81,3.0,15.0,80,-99.99,,,0.00,9.180000,,2013-01-17 17:02:00,
2013-01-17 09:12:00,32.0,27.0,30.61,East,81,3.0,15.0,80,-99.99,,,0.00,9.180000,,2013-01-17 17:12:00,
2013-01-17 09:43:00,33.0,27.0,30.61,ENE,78,4.0,12.0,79,-99.99,,,-99.99,58.689999,,2013-01-17 17:43:00,
2013-01-17 09:53:00,33.0,27.0,30.61,ENE,78,4.0,12.0,79,-99.99,,,-99.99,58.689999,,2013-01-17 17:53:00,
2013-01-17 10:03:00,33.0,27.0,30.61,ENE,78,4.0,12.0,79,-99.99,,,-99.99,58.689999,,2013-01-17 18:03:00,
2013-01-17 10:12:00,33.0,27.0,30.61,ENE,78,4.0,12.0,79,-99.99,,,-99.99,58.689999,,2013-01-17 18:12:00,
2013-01-17 10:43:00,33.0,27.0,30.60,East,93,4.0,15.0,77,-99.99,,,0.00,108.080002,,2013-01-17 18:43:00,
2013-01-17 10:53:00,33.0,27.0,30.60,East,93,4.0,15.0,77,-99.99,,,0.00,108.080002,,2013-01-17 18:53:00,
2013-01-17 11:03:00,33.0,27.0,30.60,East,93,4.0,15.0,77,-99.99,,,0.00,108.080002,,2013-01-17 19:03:00,
2013-01-17 11:12:00,33.0,27.0,30.60,East,93,4.0,15.0,77,-99.99,,,0.00,108.080002,,2013-01-17 19:12:00,
2013-01-17 11:42:00,34.0,27.0,30.59,ENE,78,4.0,13.0,76,-99.99,,,0.00,116.339996,,2013-01-17 19:42:00,
2013-01-17 11:53:00,34.0,27.0,30.59,ENE,78,4.0,13.0,76,-99.99,,,0.00,116.339996,,2013-01-17 19:53:00,
2013-01-17 12:02:00,34.0,27.0,30.59,ENE,78,4.0,13.0,76,-99.99,,,0.00,116.339996,,2013-01-17 20:02:00,
2013-01-17 12:12:00,34.0,27.0,30.59,ENE,78,4.0,13.0,76,-99.99,,,0.00,116.339996,,2013-01-17 20:12:00,
2013-01-17 12:43:00,35.0,27.0,30.56,East,81,5.0,14.0,74,-99.99,,,0.00,134.119995,,2013-01-17 20:43:00,
2013-01-17 12:53:00,35.0,27.0,30.56,East,81,5.0,14.0,74,-99.99,,,0.00,134.119995,,2013-01-17 20:53:00,
2013-01-17 13:02:00,35.0,27.0,30.56,East,81,5.0,14.0,74,-99.99,,,0.00,134.119995,,2013-01-17 21:02:00,
2013-01-17 13:12:00,35.0,27.0,30.56,East,81,5.0,14.0,74,-99.99,,,0.00,134.119995,,2013-01-17 21:12:00,
2013-01-17 13:42:00,37.0,28.0,30.53,East,92,6.0,12.0,69,-99.99,,,0.00,349.359985,,2013-01-17 21:42:00,
2013-01-17 13:53:00,37.0,28.0,30.53,East,92,6.0,12.0,69,-99.99,,,0.00,349.359985,,2013-01-17 21:53:00,
2013-01-17 14:03:00,37.0,28.0,30.53,East,92,6.0,12.0,69,-99.99,,,0.00,349.359985,,2013-01-17 22:03:00,
2013-01-17 14:12:00,37.0,28.0,30.53,East,92,6.0,12.0,69,-99.99,,,0.00,349.359985,,2013-01-17 22:12:00,
2013-01-17 14:42:00,37.0,27.0,30.51,East,86,7.0,16.0,67,-99.99,,,0.00,287.059998,,2013-01-17 22:42:00,
2013-01-17 14:52:00,37.0,27.0,30.51,East,86,7.0,16.0,67,-99.99,,,0.00,287.059998,,2013-01-17 22:52:00,
2013-01-17 15:02:00,37.0,27.0,30.51,East,86,7.0,16.0,67,-99.99,,,0.00,287.059998,,2013-01-17 23:02:00,
2013-01-17 15:12:00,37.0,27.0,30.51,East,86,7.0,16.0,67,-99.99,,,0.00,287.059998,,2013-01-17 23:12:00,
2013-01-17 15:42:00,37.0,28.0,30.51,East,90,3.0,10.0,67,-99.99,,,0.00,180.720001,,2013-01-17 23:42:00,
2013-01-17 15:53:00,37.0,28.0,30.51,East,90,3.0,10.0,67,-99.99,,,0.00,180.720001,,2013-01-17 23:53:00,
2013-01-17 16:02:00,37.0,28.0,30.51,East,90,3.0,10.0,67,-99.99,,,0.00,180.720001,,2013-01-18 00:02:00,
2013-01-17 16:12:00,37.0,28.0,30.51,East,90,3.0,10.0,67,-99.99,,,0.00,180.720001,,2013-01-18 00:12:00,
2013-01-17 16:42:00,36.0,27.0,30.50,ENE,78,4.0,12.0,70,-99.99,,,0.00,70.889999,,2013-01-18 00:42:00,
2013-01-17 16:53:00,36.0,27.0,30.50,ENE,78,4.0,12.0,70,-99.99,,,0.00,70.889999,,2013-01-18 00:53:00,
2013-01-17 17:02:00,36.0,27.0,30.50,ENE,78,4.0,12.0,70,-99.99,,,0.00,70.889999,,2013-01-18 01:02:00,
2013-01-17 17:12:00,36.0,27.0,30.50,ENE,78,4.0,12.0,70,-99.99,,,0.00,70.889999,,2013-01-18 01:12:00,
2013-01-17 17:33:00,34.0,27.0,30.50,NE,51,2.0,8.0,75,-99.99,,,0.00,1.630000,,2013-01-18 01:33:00,
2013-01-17 17:42:00,34.0,27.0,30.50,NE,51,2.0,8.0,75,-99.99,,,0.00,1.630000,,2013-01-18 01:42:00,
2013-01-17 17:53:00,34.0,27.0,30.50,NE,51,2.0,8.0,75,-99.99,,,0.00,1.630000,,2013-01-18 01:53:00,
2013-01-17 18:02:00,34.0,27.0,30.50,NE,51,2.0,8.0,75,-99.99,,,0.00,1.630000,,2013-01-18 02:02:00,
2013-01-17 18:12:00,34.0,27.0,30.50,NE,51,2.0,8.0,75,-99.99,,,0.00,1.630000,,2013-01-18 02:12:00,
2013-01-17 18:42:00,33.0,27.0,30.50,NNE,29,1.0,4.0,80,-99.99,,,0.00,0.000000,,2013-01-18 02:42:00,
2013-01-17 18:53:00,33.0,27.0,30.50,NNE,29,1.0,4.0,80,-99.99,,,0.00,0.000000,,2013-01-18 02:53:00,
2013-01-17 19:02:00,33.0,27.0,30.50,NNE,29,1.0,4.0,80,-99.99,,,0.00,0.000000,,2013-01-18 03:02:00,
2013-01-17 19:12:00,33.0,27.0,30.50,NNE,29,1.0,4.0,80,-99.99,,,0.00,0.000000,,2013-01-18 03:12:00,
2013-01-17 19:42:00,33.0,27.0,30.49,ENE,68,2.0,7.0,78,-99.99,,,0.00,0.000000,,2013-01-18 03:42:00,
2013-01-17 19:52:00,33.0,27.0,30.49,ENE,68,2.0,7.0,78,-99.99,,,0.00,0.000000,,2013-01-18 03:52:00,
2013-01-17 20:02:00,33.0,27.0,30.49,ENE,68,2.0,7.0,78,-99.99,,,0.00,0.000000,,2013-01-18 04:02:00,
2013-01-17 20:12:00,33.0,27.0,30.49,ENE,68,2.0,7.0,78,-99.99,,,0.00,0.000000,,2013-01-18 04:12:00,
2013-01-17 20:32:00,33.0,27.0,30.50,SSW,206,2.0,6.0,79,-99.99,,,0.00,0.000000,,2013-01-18 04:32:00,
2013-01-17 20:42:00,33.0,27.0,30.50,SSW,206,2.0,6.0,79,-99.99,,,0.00,0.000000,,2013-01-18 04:42:00,
2013-01-17 20:53:00,33.0,27.0,30.50,SSW,206,2.0,6.0,79,-99.99,,,0.00,0.000000,,2013-01-18 04:53:00,
2013-01-17 21:03:00,33.0,27.0,30.50,SSW,206,2.0,6.0,79,-99.99,,,0.00,0.000000,,2013-01-18 05:03:00,
2013-01-17 21:12:00,33.0,27.0,30.50,SSW,206,2.0,6.0,79,-99.99,,,0.00,0.000000,,2013-01-18 05:12:00,
2013-01-17 21:33:00,32.0,28.0,30.50,East,89,3.0,7.0,83,-99.99,,,0.00,0.000000,,2013-01-18 05:33:00,
2013-01-17 21:42:00,32.0,28.0,30.50,East,89,3.0,7.0,83,-99.99,,,0.00,0.000000,,2013-01-18 05:42:00,
2013-01-17 21:53:00,32.0,28.0,30.50,East,89,3.0,7.0,83,-99.99,,,0.00,0.000000,,2013-01-18 05:53:00,
2013-01-17 22:02:00,32.0,28.0,30.50,East,89,3.0,7.0,83,-99.99,,,0.00,0.000000,,2013-01-18 06:02:00,
2013-01-17 22:12:00,32.0,28.0,30.50,East,89,3.0,7.0,83,-99.99,,,0.00,0.000000,,2013-01-18 06:12:00,
2013-01-17 22:32:00,32.0,28.0,30.49,East,95,2.0,8.0,85,-99.99,,,0.00,0.000000,,2013-01-18 06:32:00,
2013-01-17 22:43:00,32.0,28.0,30.49,East,95,2.0,8.0,85,-99.99,,,0.00,0.000000,,2013-01-18 06:43:00,
2013-01-17 22:52:00,32.0,28.0,30.49,East,95,2.0,8.0,85,-99.99,,,0.00,0.000000,,2013-01-18 06:52:00,
2013-01-17 23:02:00,32.0,28.0,30.49,East,95,2.0,8.0,85,-99.99,,,0.00,0.000000,,2013-01-18 07:02:00,
2013-01-17 23:12:00,32.0,28.0,30.49,East,95,2.0,8.0,85,-99.99,,,0.00,0.000000,,2013-01-18 07:12:00,
2013-01-17 23:32:00,32.0,27.0,30.48,NE,48,2.0,9.0,83,-99.99,,,0.00,0.000000,,2013-01-18 07:32:00,
2013-01-17 23:42:00,32.0,27.0,30.48,NE,48,2.0,9.0,83,-99.99,,,0.00,0.000000,,2013-01-18 07:42:00,
2013-01-17 23:52:00,32.0,27.0,30.48,NE,48,2.0,9.0,83,-99.99,,,0.00,0.000000,,2013-01-18 07:52:00,